EW3173 Weather Reports


Display with metric or nautical units.
time (UTC)temp
F
wind
direction
speed
MPH
gust
MPH
rain 1hr
in
rain 24hr
in
rain mn
in
humidity
%
barometer
mb
20210926004806 73 101 0.0 1.0 0.00 0.00 0.00 28 1026.9
20210926004306 74 101 0.0 0.0 0.00 0.00 0.00 27 1026.9
20210926003806 75 101 0.0 0.0 0.00 0.00 0.00 26 1026.9
20210926003306 75 101 0.0 0.0 0.00 0.00 0.00 25 1026.9
20210926001806 78 101 0.0 0.0 0.00 0.00 0.00 21 1026.8
20210926001306 79 101 0.0 1.0 0.00 0.00 0.00 20 1026.8
20210926000806 80 101 0.0 2.0 0.00 0.00 0.00 19 1026.8
20210926000306 81 101 0.0 2.0 0.00 0.00 0.00 17 1026.8
20210925234806 82 101 1.0 2.0 0.00 0.00 0.00 17 1026.8
20210925234306 82 101 0.0 2.0 0.00 0.00 0.00 17 1026.9
20210925233806 82 101 0.0 2.0 0.00 0.00 0.00 17 1026.9
20210925233306 82 101 1.0 2.0 0.00 0.00 0.00 16 1026.9
20210925231806 83 101 1.0 2.0 0.00 0.00 0.00 17 1027.0
20210925231306 83 101 1.0 2.0 0.00 0.00 0.00 16 1027.1
20210925230805 83 101 1.0 2.0 0.00 0.00 0.00 17 1027.2
20210925230306 83 101 1.0 2.0 0.00 0.00 0.00 16 1027.3
20210925224806 83 103 0.0 3.0 0.00 0.00 0.00 16 1027.3
20210925224306 83 78 1.0 3.0 0.00 0.00 0.00 17 1027.3
20210925223806 83 79 1.0 3.0 0.00 0.00 0.00 16 1027.3
20210925223306 83 99 1.0 3.0 0.00 0.00 0.00 16 1027.4
20210925221806 83 132 2.0 3.0 0.00 0.00 0.00 16 1027.5
20210925221306 83 119 1.0 3.0 0.00 0.00 0.00 16 1027.5
20210925220806 83 119 2.0 3.0 0.00 0.00 0.00 16 1027.6
20210925220306 83 112 2.0 3.0 0.00 0.00 0.00 16 1027.7
20210925214806 83 127 1.0 3.0 0.00 0.00 0.00 16 1028.0
20210925214305 83 130 1.0 3.0 0.00 0.00 0.00 16 1028.0
20210925213805 83 132 2.0 3.0 0.00 0.00 0.00 16 1028.1
20210925213306 83 113 2.0 3.0 0.00 0.00 0.00 16 1028.2
20210925211806 83 53 1.0 3.0 0.00 0.00 0.00 16 1028.6
20210925211306 83 63 1.0 2.0 0.00 0.00 0.00 17 1028.7
20210925210806 83 63 1.0 3.0 0.00 0.00 0.00 17 1028.8
20210925210306 83 90 1.0 3.0 0.00 0.00 0.00 16 1029.0
20210925204806 82 99 1.0 3.0 0.00 0.00 0.00 17 1029.3
20210925204306 83 65 1.0 3.0 0.00 0.00 0.00 16 1029.4
20210925203806 83 65 1.0 3.0 0.00 0.00 0.00 17 1029.4
20210925203306 83 55 2.0 3.0 0.00 0.00 0.00 17 1029.6
20210925201806 83 172 1.0 5.0 0.00 0.00 0.00 18 1029.9
20210925201306 83 97 2.0 6.0 0.00 0.00 0.00 16 1030.0
20210925200806 84 254 1.0 6.0 0.00 0.00 0.00 18 1030.2
20210925200306 84 190 1.0 3.0 0.00 0.00 0.00 18 1030.4
20210925194805 82 196 0.0 5.0 0.00 0.00 0.00 20 1030.8
20210925194306 82 162 3.0 5.0 0.00 0.00 0.00 18 1031.0
20210925193806 82 195 1.0 3.0 0.00 0.00 0.00 19 1031.1
20210925193306 82 133 1.0 3.0 0.00 0.00 0.00 17 1031.2
20210925191806 81 73 2.0 3.0 0.00 0.00 0.00 18 1031.6
20210925191306 81 143 1.0 5.0 0.00 0.00 0.00 20 1031.8
20210925190806 80 111 2.0 5.0 0.00 0.00 0.00 18 1032.0
20210925190306 80 166 3.0 6.0 0.00 0.00 0.00 18 1032.2
20210925184806 79 158 2.0 5.0 0.00 0.00 0.00 19 1032.4
20210925184306 79 167 2.0 5.0 0.00 0.00 0.00 19 1032.5
20210925183806 79 189 2.0 5.0 0.00 0.00 0.00 19 1032.6
20210925183306 79 163 2.0 5.0 0.00 0.00 0.00 18 1032.8
20210925181806 79 157 2.0 5.0 0.00 0.00 0.00 20 1032.9
20210925181306 79 154 2.0 6.0 0.00 0.00 0.00 21 1033.0
20210925180806 78 157 3.0 6.0 0.00 0.00 0.00 21 1033.1
20210925180306 78 159 2.0 5.0 0.00 0.00 0.00 21 1033.2
20210925174806 77 159 2.0 6.0 0.00 0.00 0.00 22 1033.4
20210925174306 77 160 2.0 6.0 0.00 0.00 0.00 22 1033.5
20210925173806 77 148 1.0 5.0 0.00 0.00 0.00 23 1033.6
20210925173306 77 148 1.0 5.0 0.00 0.00 0.00 22 1033.6
20210925171806 75 187 1.0 3.0 0.00 0.00 0.00 28 1033.9
20210925171306 75 193 1.0 5.0 0.00 0.00 0.00 28 1034.0
20210925170806 75 165 1.0 5.0 0.00 0.00 0.00 27 1034.1
20210925170306 74 165 1.0 3.0 0.00 0.00 0.00 28 1034.3
20210925164806 73 165 2.0 3.0 0.00 0.00 0.00 31 1034.5
20210925164306 72 165 1.0 3.0 0.00 0.00 0.00 31 1034.5
20210925163806 71 165 2.0 3.0 0.00 0.00 0.00 32 1034.6
20210925163306 71 165 1.0 3.0 0.00 0.00 0.00 33 1034.7
20210925161806 68 166 1.0 3.0 0.00 0.00 0.00 36 1034.9
20210925161306 68 166 2.0 3.0 0.00 0.00 0.00 37 1034.9
20210925160806 67 355 1.0 2.0 0.00 0.00 0.00 40 1034.9
20210925160306 66 355 0.0 2.0 0.00 0.00 0.00 41 1035.0
20210925154806 64 355 0.0 2.0 0.00 0.00 0.00 43 1035.0
20210925154306 64 355 1.0 2.0 0.00 0.00 0.00 45 1035.1
20210925153806 63 355 1.0 2.0 0.00 0.00 0.00 47 1035.2
20210925153306 63 355 1.0 2.0 0.00 0.00 0.00 46 1035.2
20210925151806 62 355 0.0 1.0 0.00 0.00 0.00 49 1035.2
20210925151306 61 355 0.0 0.0 0.00 0.00 0.00 52 1035.3
20210925150806 60 355 0.0 0.0 0.00 0.00 0.00 50 1035.3
20210925150306 59 355 0.0 0.0 0.00 0.00 0.00 54 1035.4
20210925144807 57 355 0.0 0.0 0.00 0.00 0.00 59 1035.5
20210925144306 56 355 0.0 0.0 0.00 0.00 0.00 61 1035.5
20210925143806 56 355 0.0 0.0 0.00 0.00 0.00 64 1035.5
20210925143306 54 355 0.0 0.0 0.00 0.00 0.00 68 1035.6
20210925141806 52 355 0.0 0.0 0.00 0.00 0.00 73 1035.6
20210925141306 51 355 0.0 0.0 0.00 0.00 0.00 74 1035.6
20210925140806 50 355 0.0 0.0 0.00 0.00 0.00 75 1035.6
20210925140306 49 355 0.0 0.0 0.00 0.00 0.00 76 1035.6
20210925134806 47 355 0.0 0.0 0.00 0.00 0.00 78 1035.7
20210925134307 46 355 0.0 0.0 0.00 0.00 0.00 79 1035.7
20210925133807 45 355 0.0 0.0 0.00 0.00 0.00 80 1035.8
20210925133306 45 355 0.0 0.0 0.00 0.00 0.00 80 1035.7
20210925131806 44 355 0.0 0.0 0.00 0.00 0.00 79 1035.7
20210925131306 44 355 0.0 0.0 0.00 0.00 0.00 79 1035.6
20210925130806 44 355 0.0 0.0 0.00 0.00 0.00 79 1035.5
20210925130306 44 355 0.0 0.0 0.00 0.00 0.00 79 1035.4
20210925124806 44 355 0.0 0.0 0.00 0.00 0.00 79 1035.3
20210925124306 44 355 0.0 0.0 0.00 0.00 0.00 79 1035.3
20210925123807 44 355 0.0 0.0 0.00 0.00 0.00 79 1035.3
20210925123307 44 355 0.0 0.0 0.00 0.00 0.00 79 1035.2
20210925121806 44 355 0.0 0.0 0.00 0.00 0.00 79 1035.3
20210925121306 44 355 0.0 0.0 0.00 0.00 0.00 78 1035.3
20210925120807 45 355 0.0 0.0 0.00 0.00 0.00 78 1035.3
20210925120306 44 355 0.0 0.0 0.00 0.00 0.00 78 1035.2
20210925114806 45 355 0.0 0.0 0.00 0.00 0.00 78 1035.2
20210925114306 45 355 0.0 0.0 0.00 0.00 0.00 77 1035.2
20210925113806 45 355 0.0 0.0 0.00 0.00 0.00 77 1035.2
20210925113307 45 355 0.0 0.0 0.00 0.00 0.00 77 1035.2
20210925111806 45 355 0.0 0.0 0.00 0.00 0.00 76 1035.3
20210925111306 46 355 0.0 0.0 0.00 0.00 0.00 76 1035.2
20210925110806 46 355 0.0 0.0 0.00 0.00 0.00 75 1035.2
20210925110306 47 355 0.0 0.0 0.00 0.00 0.00 75 1035.2
20210925104806 47 355 0.0 0.0 0.00 0.00 0.00 73 1035.1
20210925104306 47 355 0.0 0.0 0.00 0.00 0.00 74 1035.2
20210925103806 47 355 0.0 0.0 0.00 0.00 0.00 75 1035.1
20210925103307 47 355 0.0 0.0 0.00 0.00 0.00 76 1035.2
20210925101806 47 355 0.0 0.0 0.00 0.00 0.00 75 1035.1
20210925101306 46 355 0.0 0.0 0.00 0.00 0.00 76 1035.1
20210925100807 46 355 0.0 0.0 0.00 0.00 0.00 75 1035.0
20210925100306 47 355 0.0 0.0 0.00 0.00 0.00 76 1035.0
20210925094806 47 355 0.0 0.0 0.00 0.00 0.00 74 1035.0
20210925094306 48 355 0.0 0.0 0.00 0.00 0.00 73 1035.0
20210925093806 48 355 0.0 0.0 0.00 0.00 0.00 73 1035.0
20210925093307 47 355 0.0 0.0 0.00 0.00 0.00 73 1035.0
20210925091806 47 355 0.0 0.0 0.00 0.00 0.00 72 1035.0
20210925091306 48 355 0.0 0.0 0.00 0.00 0.00 72 1034.9
20210925090806 48 355 0.0 0.0 0.00 0.00 0.00 72 1035.0
20210925090306 48 355 0.0 0.0 0.00 0.00 0.00 71 1035.1
20210925084806 48 355 0.0 0.0 0.00 0.00 0.00 71 1035.2
20210925084306 48 355 0.0 0.0 0.00 0.00 0.00 70 1035.2
20210925083806 48 355 0.0 0.0 0.00 0.00 0.00 70 1035.2
20210925083307 48 355 0.0 0.0 0.00 0.00 0.00 69 1035.3
20210925081806 48 355 0.0 0.0 0.00 0.00 0.00 70 1035.3
20210925081306 48 355 0.0 0.0 0.00 0.00 0.00 70 1035.3
20210925080806 48 355 0.0 0.0 0.00 0.00 0.00 70 1035.2
20210925080306 48 355 0.0 0.0 0.00 0.00 0.00 69 1035.2
20210925074806 49 355 0.0 0.0 0.00 0.00 0.00 67 1035.1
20210925074307 50 355 0.0 0.0 0.00 0.00 0.00 66 1035.1
20210925073806 50 355 0.0 0.0 0.00 0.00 0.00 65 1035.1
20210925073306 50 355 0.0 0.0 0.00 0.00 0.00 65 1035.2
20210925071806 51 355 0.0 0.0 0.00 0.00 0.00 63 1035.2
20210925071306 51 355 0.0 0.0 0.00 0.00 0.00 62 1035.2
20210925070806 52 355 0.0 0.0 0.00 0.00 0.00 61 1035.3
20210925070306 52 355 0.0 0.0 0.00 0.00 0.00 60 1035.3
20210925064806 54 355 0.0 0.0 0.00 0.00 0.00 56 1035.5
20210925064306 53 355 0.0 0.0 0.00 0.00 0.00 58 1035.5
20210925063806 53 355 0.0 0.0 0.00 0.00 0.00 58 1035.6
20210925063306 54 355 0.0 0.0 0.00 0.00 0.00 56 1035.7
20210925061806 53 355 0.0 0.0 0.00 0.00 0.00 58 1035.8
20210925061306 54 355 0.0 0.0 0.00 0.00 0.00 57 1035.9
20210925060306 53 355 0.0 0.0 0.00 0.00 0.00 59 1036.0
20210925054806 53 355 0.0 0.0 0.00 0.00 0.00 59 1035.9
20210925054306 53 355 0.0 0.0 0.00 0.00 0.00 59 1035.9
20210925053806 53 355 0.0 0.0 0.00 0.00 0.00 59 1036.0
20210925053306 54 355 0.0 0.0 0.00 0.00 0.00 57 1036.0
20210925051806 54 355 0.0 0.0 0.00 0.00 0.00 58 1035.9
20210925051306 54 355 0.0 0.0 0.00 0.00 0.00 58 1035.9
20210925050806 54 355 0.0 0.0 0.00 0.00 0.00 58 1036.0
20210925050306 54 355 0.0 0.0 0.00 0.00 0.00 58 1036.0
20210925044806 54 355 0.0 0.0 0.00 0.00 0.00 62 1036.1
20210925044306 54 355 0.0 0.0 0.00 0.00 0.00 63 1036.1
20210925043806 54 355 0.0 0.0 0.00 0.00 0.00 64 1036.2
20210925043307 54 355 0.0 0.0 0.00 0.00 0.00 63 1036.2
20210925041806 54 355 0.0 1.0 0.00 0.00 0.00 64 1036.2
20210925041306 54 355 0.0 1.0 0.00 0.00 0.00 64 1036.2
20210925040806 54 355 0.0 1.0 0.00 0.00 0.00 63 1036.2
20210925040306 54 355 0.0 0.0 0.00 0.00 0.00 63 1036.2
20210925034806 55 355 0.0 0.0 0.00 0.00 0.00 61 1036.2
20210925034306 55 355 0.0 0.0 0.00 0.00 0.00 61 1036.2
20210925033807 55 355 0.0 0.0 0.00 0.00 0.00 60 1036.3
20210925033306 55 355 0.0 1.0 0.00 0.00 0.00 60 1036.2
20210925031806 56 355 0.0 0.0 0.00 0.00 0.00 59 1036.1
20210925031306 56 355 0.0 0.0 0.00 0.00 0.00 57 1036.1
20210925030806 57 355 0.0 0.0 0.00 0.00 0.00 57 1036.0
20210925030306 57 355 0.0 0.0 0.00 0.00 0.00 57 1035.9
20210925024806 57 355 0.0 1.0 0.00 0.00 0.00 57 1035.9
20210925024306 57 355 0.0 0.0 0.00 0.00 0.00 56 1035.9
20210925023806 58 355 0.0 0.0 0.00 0.00 0.00 56 1035.8
20210925023306 58 355 0.0 0.0 0.00 0.00 0.00 54 1035.7
20210925021806 59 355 0.0 0.0 0.00 0.00 0.00 52 1035.5
20210925021306 59 355 0.0 0.0 0.00 0.00 0.00 52 1035.4
20210925020806 59 355 0.0 0.0 0.00 0.00 0.00 52 1035.3
20210925020306 59 355 0.0 0.0 0.00 0.00 0.00 51 1035.2
20210925014806 61 355 0.0 0.0 0.00 0.00 0.00 47 1035.0
20210925014307 62 355 0.0 0.0 0.00 0.00 0.00 45 1035.0
20210925013806 63 355 0.0 0.0 0.00 0.00 0.00 45 1035.0
20210925013306 63 355 0.0 1.0 0.00 0.00 0.00 43 1034.9
20210925011806 64 355 0.0 2.0 0.00 0.00 0.00 42 1034.8
20210925011306 64 355 0.0 1.0 0.00 0.00 0.00 41 1034.8
20210925010806 64 355 0.0 1.0 0.00 0.00 0.00 42 1034.8
20210925010306 65 355 0.0 2.0 0.00 0.00 0.00 41 1034.8